sensor_id;sensor_type;location;lat;lon;timestamp;P1;durP1;ratioP1;P2;durP2;ratioP2
6031;SDS011;3044;43.232;27.972;2022-11-14T00:00:06;18.47;;;12.63;;
6031;SDS011;3044;43.232;27.972;2022-11-14T00:02:35;24.77;;;13.70;;
6031;SDS011;3044;43.232;27.972;2022-11-14T00:05:02;23.73;;;15.23;;
6031;SDS011;3044;43.232;27.972;2022-11-14T00:07:30;24.27;;;16.27;;
6031;SDS011;3044;43.232;27.972;2022-11-14T00:10:00;26.70;;;15.83;;
6031;SDS011;3044;43.232;27.972;2022-11-14T00:12:27;28.97;;;17.00;;
6031;SDS011;3044;43.232;27.972;2022-11-14T00:14:54;24.47;;;17.70;;
6031;SDS011;3044;43.232;27.972;2022-11-14T00:17:21;25.10;;;18.50;;
6031;SDS011;3044;43.232;27.972;2022-11-14T00:19:48;28.67;;;17.63;;
6031;SDS011;3044;43.232;27.972;2022-11-14T00:22:16;31.10;;;19.63;;
6031;SDS011;3044;43.232;27.972;2022-11-14T00:24:43;28.30;;;18.53;;
6031;SDS011;3044;43.232;27.972;2022-11-14T00:27:11;30.60;;;19.70;;
6031;SDS011;3044;43.232;27.972;2022-11-14T00:29:38;31.10;;;20.23;;
6031;SDS011;3044;43.232;27.972;2022-11-14T00:32:06;35.07;;;19.13;;
6031;SDS011;3044;43.232;27.972;2022-11-14T00:34:33;29.93;;;19.30;;
6031;SDS011;3044;43.232;27.972;2022-11-14T00:37:00;31.00;;;18.60;;
6031;SDS011;3044;43.232;27.972;2022-11-14T00:39:27;26.30;;;18.40;;
6031;SDS011;3044;43.232;27.972;2022-11-14T00:41:54;27.97;;;18.90;;
6031;SDS011;3044;43.232;27.972;2022-11-14T00:44:23;29.93;;;17.60;;
6031;SDS011;3044;43.232;27.972;2022-11-14T00:46:50;27.83;;;17.80;;
6031;SDS011;3044;43.232;27.972;2022-11-14T00:49:17;28.23;;;18.50;;
6031;SDS011;3044;43.232;27.972;2022-11-14T00:51:44;31.27;;;17.17;;
6031;SDS011;3044;43.232;27.972;2022-11-14T00:54:11;24.90;;;16.40;;
6031;SDS011;3044;43.232;27.972;2022-11-14T00:56:38;24.40;;;17.27;;
6031;SDS011;3044;43.232;27.972;2022-11-14T00:59:06;25.03;;;16.63;;
6031;SDS011;3044;43.232;27.972;2022-11-14T01:01:34;27.00;;;17.40;;
6031;SDS011;3044;43.232;27.972;2022-11-14T01:04:01;28.80;;;17.00;;
6031;SDS011;3044;43.232;27.972;2022-11-14T01:06:29;23.93;;;15.70;;
6031;SDS011;3044;43.232;27.972;2022-11-14T01:08:56;24.67;;;17.33;;
6031;SDS011;3044;43.232;27.972;2022-11-14T01:11:23;27.87;;;17.67;;
6031;SDS011;3044;43.232;27.972;2022-11-14T01:13:50;38.63;;;18.40;;
6031;SDS011;3044;43.232;27.972;2022-11-14T01:16:17;27.50;;;17.80;;
6031;SDS011;3044;43.232;27.972;2022-11-14T01:18:46;24.77;;;16.23;;
6031;SDS011;3044;43.232;27.972;2022-11-14T01:21:13;26.77;;;18.07;;
6031;SDS011;3044;43.232;27.972;2022-11-14T01:23:40;30.47;;;18.07;;
6031;SDS011;3044;43.232;27.972;2022-11-14T01:26:08;27.87;;;18.00;;
6031;SDS011;3044;43.232;27.972;2022-11-14T01:28:36;30.67;;;19.77;;
6031;SDS011;3044;43.232;27.972;2022-11-14T01:31:08;34.13;;;20.13;;
6031;SDS011;3044;43.232;27.972;2022-11-14T01:33:37;32.03;;;18.30;;
6031;SDS011;3044;43.232;27.972;2022-11-14T01:36:06;30.67;;;20.47;;
6031;SDS011;3044;43.232;27.972;2022-11-14T01:38:34;27.87;;;19.40;;
6031;SDS011;3044;43.232;27.972;2022-11-14T01:41:01;30.73;;;18.77;;
6031;SDS011;3044;43.232;27.972;2022-11-14T01:43:30;32.10;;;19.73;;
6031;SDS011;3044;43.232;27.972;2022-11-14T01:45:59;30.70;;;18.87;;
6031;SDS011;3044;43.232;27.972;2022-11-14T01:48:31;27.23;;;17.13;;
6031;SDS011;3044;43.232;27.972;2022-11-14T01:51:04;27.40;;;19.37;;
6031;SDS011;3044;43.232;27.972;2022-11-14T01:53:40;23.10;;;16.90;;
6031;SDS011;3044;43.232;27.972;2022-11-14T01:56:10;26.87;;;18.77;;
6031;SDS011;3044;43.232;27.972;2022-11-14T01:58:41;31.70;;;17.63;;
6031;SDS011;3044;43.232;27.972;2022-11-14T02:01:12;34.90;;;18.70;;
6031;SDS011;3044;43.232;27.972;2022-11-14T02:03:40;22.93;;;17.83;;
6031;SDS011;3044;43.232;27.972;2022-11-14T02:06:11;36.53;;;19.70;;
6031;SDS011;3044;43.232;27.972;2022-11-14T02:08:40;29.60;;;18.53;;
6031;SDS011;3044;43.232;27.972;2022-11-14T02:11:09;36.10;;;20.40;;
6031;SDS011;3044;43.232;27.972;2022-11-14T02:13:37;34.40;;;21.30;;
6031;SDS011;3044;43.232;27.972;2022-11-14T02:16:05;30.80;;;21.67;;
6031;SDS011;3044;43.232;27.972;2022-11-14T02:18:32;32.90;;;22.03;;
6031;SDS011;3044;43.232;27.972;2022-11-14T02:21:01;38.67;;;22.83;;
6031;SDS011;3044;43.232;27.972;2022-11-14T02:23:29;36.70;;;23.77;;
6031;SDS011;3044;43.232;27.972;2022-11-14T02:25:58;33.13;;;23.43;;
6031;SDS011;3044;43.232;27.972;2022-11-14T02:28:25;33.27;;;23.10;;
6031;SDS011;3044;43.232;27.972;2022-11-14T02:30:53;42.53;;;22.67;;
6031;SDS011;3044;43.232;27.972;2022-11-14T02:33:20;33.10;;;21.80;;
6031;SDS011;3044;43.232;27.972;2022-11-14T02:35:47;35.57;;;22.87;;
6031;SDS011;3044;43.232;27.972;2022-11-14T02:38:15;34.57;;;21.03;;
6031;SDS011;3044;43.232;27.972;2022-11-14T02:40:43;30.30;;;20.07;;
6031;SDS011;3044;43.232;27.972;2022-11-14T02:43:10;26.90;;;19.70;;
6031;SDS011;3044;43.232;27.972;2022-11-14T02:45:37;22.63;;;17.80;;
6031;SDS011;3044;43.232;27.972;2022-11-14T02:48:04;26.00;;;18.47;;
6031;SDS011;3044;43.232;27.972;2022-11-14T02:50:32;24.00;;;17.20;;
6031;SDS011;3044;43.232;27.972;2022-11-14T02:52:59;30.80;;;18.20;;
6031;SDS011;3044;43.232;27.972;2022-11-14T02:55:27;22.47;;;16.87;;
6031;SDS011;3044;43.232;27.972;2022-11-14T02:57:54;23.30;;;16.53;;
6031;SDS011;3044;43.232;27.972;2022-11-14T03:00:21;22.50;;;16.80;;
6031;SDS011;3044;43.232;27.972;2022-11-14T03:02:48;19.47;;;15.10;;
6031;SDS011;3044;43.232;27.972;2022-11-14T03:05:18;19.30;;;14.73;;
6031;SDS011;3044;43.232;27.972;2022-11-14T03:07:45;17.40;;;13.27;;
6031;SDS011;3044;43.232;27.972;2022-11-14T03:10:12;18.87;;;13.83;;
6031;SDS011;3044;43.232;27.972;2022-11-14T03:12:41;16.60;;;12.63;;
6031;SDS011;3044;43.232;27.972;2022-11-14T03:15:08;21.17;;;14.57;;
6031;SDS011;3044;43.232;27.972;2022-11-14T03:17:36;27.00;;;15.00;;
6031;SDS011;3044;43.232;27.972;2022-11-14T03:20:04;27.63;;;17.10;;
6031;SDS011;3044;43.232;27.972;2022-11-14T03:22:32;27.40;;;18.10;;
6031;SDS011;3044;43.232;27.972;2022-11-14T03:24:59;26.83;;;17.83;;
6031;SDS011;3044;43.232;27.972;2022-11-14T03:27:26;30.57;;;19.00;;
6031;SDS011;3044;43.232;27.972;2022-11-14T03:29:55;27.40;;;18.60;;
6031;SDS011;3044;43.232;27.972;2022-11-14T03:32:22;29.00;;;17.73;;
6031;SDS011;3044;43.232;27.972;2022-11-14T03:34:49;30.23;;;18.33;;
6031;SDS011;3044;43.232;27.972;2022-11-14T03:37:16;27.87;;;18.30;;
6031;SDS011;3044;43.232;27.972;2022-11-14T03:39:43;32.47;;;18.80;;
6031;SDS011;3044;43.232;27.972;2022-11-14T03:42:10;29.83;;;18.20;;
6031;SDS011;3044;43.232;27.972;2022-11-14T03:44:38;22.77;;;16.77;;
6031;SDS011;3044;43.232;27.972;2022-11-14T03:47:06;27.43;;;17.73;;
6031;SDS011;3044;43.232;27.972;2022-11-14T03:49:34;26.73;;;18.10;;
6031;SDS011;3044;43.232;27.972;2022-11-14T03:52:01;24.20;;;16.67;;
6031;SDS011;3044;43.232;27.972;2022-11-14T03:54:28;20.53;;;15.03;;
6031;SDS011;3044;43.232;27.972;2022-11-14T03:56:55;19.07;;;14.90;;
6031;SDS011;3044;43.232;27.972;2022-11-14T03:59:22;26.47;;;17.63;;
6031;SDS011;3044;43.232;27.972;2022-11-14T04:01:49;23.53;;;15.90;;
6031;SDS011;3044;43.232;27.972;2022-11-14T04:04:18;29.97;;;17.23;;
6031;SDS011;3044;43.232;27.972;2022-11-14T04:06:45;25.77;;;18.13;;
6031;SDS011;3044;43.232;27.972;2022-11-14T04:09:12;37.73;;;18.60;;
6031;SDS011;3044;43.232;27.972;2022-11-14T04:11:39;29.07;;;19.50;;
6031;SDS011;3044;43.232;27.972;2022-11-14T04:14:06;34.00;;;19.77;;
6031;SDS011;3044;43.232;27.972;2022-11-14T04:16:34;29.53;;;19.47;;
6031;SDS011;3044;43.232;27.972;2022-11-14T04:19:02;26.83;;;18.17;;
6031;SDS011;3044;43.232;27.972;2022-11-14T04:21:31;31.83;;;19.47;;
6031;SDS011;3044;43.232;27.972;2022-11-14T04:23:58;31.53;;;19.33;;
6031;SDS011;3044;43.232;27.972;2022-11-14T04:26:25;27.60;;;18.77;;
6031;SDS011;3044;43.232;27.972;2022-11-14T04:28:52;28.70;;;20.27;;
6031;SDS011;3044;43.232;27.972;2022-11-14T04:31:19;32.63;;;20.37;;
6031;SDS011;3044;43.232;27.972;2022-11-14T04:33:46;32.90;;;19.47;;
6031;SDS011;3044;43.232;27.972;2022-11-14T04:36:13;32.03;;;20.87;;
6031;SDS011;3044;43.232;27.972;2022-11-14T04:38:42;34.77;;;21.77;;
6031;SDS011;3044;43.232;27.972;2022-11-14T04:41:09;36.37;;;21.33;;
6031;SDS011;3044;43.232;27.972;2022-11-14T04:43:36;34.40;;;22.73;;
6031;SDS011;3044;43.232;27.972;2022-11-14T04:46:03;33.80;;;21.20;;
6031;SDS011;3044;43.232;27.972;2022-11-14T04:48:30;38.90;;;24.63;;
6031;SDS011;3044;43.232;27.972;2022-11-14T04:50:58;36.93;;;22.93;;
6031;SDS011;3044;43.232;27.972;2022-11-14T04:53:25;43.63;;;25.60;;
6031;SDS011;3044;43.232;27.972;2022-11-14T04:55:53;39.60;;;22.27;;
6031;SDS011;3044;43.232;27.972;2022-11-14T04:58:20;41.80;;;24.10;;
6031;SDS011;3044;43.232;27.972;2022-11-14T05:00:47;47.10;;;24.40;;
6031;SDS011;3044;43.232;27.972;2022-11-14T05:03:14;46.90;;;21.67;;
6031;SDS011;3044;43.232;27.972;2022-11-14T05:05:42;31.77;;;21.27;;
6031;SDS011;3044;43.232;27.972;2022-11-14T05:08:09;35.60;;;21.70;;
6031;SDS011;3044;43.232;27.972;2022-11-14T05:10:36;36.30;;;20.50;;
6031;SDS011;3044;43.232;27.972;2022-11-14T05:13:04;36.13;;;21.60;;
6031;SDS011;3044;43.232;27.972;2022-11-14T05:15:31;34.33;;;20.77;;
6031;SDS011;3044;43.232;27.972;2022-11-14T05:17:59;30.03;;;20.00;;
6031;SDS011;3044;43.232;27.972;2022-11-14T05:20:26;30.20;;;19.60;;
6031;SDS011;3044;43.232;27.972;2022-11-14T05:22:53;23.00;;;16.57;;
6031;SDS011;3044;43.232;27.972;2022-11-14T05:25:22;29.97;;;17.60;;
6031;SDS011;3044;43.232;27.972;2022-11-14T05:27:49;34.20;;;18.03;;
6031;SDS011;3044;43.232;27.972;2022-11-14T05:30:18;24.27;;;16.93;;
6031;SDS011;3044;43.232;27.972;2022-11-14T05:32:45;27.60;;;16.20;;
6031;SDS011;3044;43.232;27.972;2022-11-14T05:35:13;23.90;;;15.93;;
6031;SDS011;3044;43.232;27.972;2022-11-14T05:37:40;30.13;;;16.93;;
6031;SDS011;3044;43.232;27.972;2022-11-14T05:40:08;29.10;;;16.03;;
6031;SDS011;3044;43.232;27.972;2022-11-14T05:42:36;24.70;;;15.13;;
6031;SDS011;3044;43.232;27.972;2022-11-14T05:45:03;22.67;;;14.23;;
6031;SDS011;3044;43.232;27.972;2022-11-14T05:47:33;19.13;;;14.07;;
6031;SDS011;3044;43.232;27.972;2022-11-14T05:50:00;24.67;;;14.57;;
6031;SDS011;3044;43.232;27.972;2022-11-14T05:52:27;23.03;;;14.90;;
6031;SDS011;3044;43.232;27.972;2022-11-14T05:54:55;25.90;;;14.97;;
6031;SDS011;3044;43.232;27.972;2022-11-14T05:57:22;24.37;;;15.47;;
6031;SDS011;3044;43.232;27.972;2022-11-14T05:59:49;23.57;;;14.47;;
6031;SDS011;3044;43.232;27.972;2022-11-14T06:02:16;21.67;;;15.43;;
6031;SDS011;3044;43.232;27.972;2022-11-14T06:04:45;20.97;;;15.20;;
6031;SDS011;3044;43.232;27.972;2022-11-14T06:07:12;29.57;;;17.07;;
6031;SDS011;3044;43.232;27.972;2022-11-14T06:09:39;29.97;;;18.10;;
6031;SDS011;3044;43.232;27.972;2022-11-14T06:12:06;31.40;;;17.33;;
6031;SDS011;3044;43.232;27.972;2022-11-14T06:14:33;36.00;;;19.83;;
6031;SDS011;3044;43.232;27.972;2022-11-14T06:17:00;35.43;;;20.07;;
6031;SDS011;3044;43.232;27.972;2022-11-14T06:19:28;39.17;;;20.70;;
6031;SDS011;3044;43.232;27.972;2022-11-14T06:21:56;44.30;;;23.10;;
6031;SDS011;3044;43.232;27.972;2022-11-14T06:24:23;40.80;;;21.70;;
6031;SDS011;3044;43.232;27.972;2022-11-14T06:26:50;38.10;;;22.10;;
6031;SDS011;3044;43.232;27.972;2022-11-14T06:29:18;48.80;;;24.30;;
6031;SDS011;3044;43.232;27.972;2022-11-14T06:31:45;40.57;;;21.93;;
6031;SDS011;3044;43.232;27.972;2022-11-14T06:34:12;43.60;;;23.73;;
6031;SDS011;3044;43.232;27.972;2022-11-14T06:36:40;49.47;;;25.40;;
6031;SDS011;3044;43.232;27.972;2022-11-14T06:39:08;52.23;;;25.37;;
6031;SDS011;3044;43.232;27.972;2022-11-14T06:41:35;49.50;;;25.63;;
6031;SDS011;3044;43.232;27.972;2022-11-14T06:44:02;48.33;;;26.60;;
6031;SDS011;3044;43.232;27.972;2022-11-14T06:46:30;48.60;;;27.00;;
6031;SDS011;3044;43.232;27.972;2022-11-14T06:48:57;48.10;;;27.17;;
6031;SDS011;3044;43.232;27.972;2022-11-14T06:51:24;52.20;;;29.30;;
6031;SDS011;3044;43.232;27.972;2022-11-14T06:53:51;48.80;;;26.83;;
6031;SDS011;3044;43.232;27.972;2022-11-14T06:56:19;52.77;;;28.03;;
6031;SDS011;3044;43.232;27.972;2022-11-14T06:58:47;48.50;;;27.53;;
6031;SDS011;3044;43.232;27.972;2022-11-14T07:01:15;51.03;;;28.07;;
6031;SDS011;3044;43.232;27.972;2022-11-14T07:03:44;62.10;;;29.73;;
6031;SDS011;3044;43.232;27.972;2022-11-14T07:06:12;52.90;;;28.57;;
6031;SDS011;3044;43.232;27.972;2022-11-14T07:08:40;55.33;;;31.23;;
6031;SDS011;3044;43.232;27.972;2022-11-14T07:11:08;50.27;;;29.23;;
6031;SDS011;3044;43.232;27.972;2022-11-14T07:13:38;48.53;;;29.77;;
6031;SDS011;3044;43.232;27.972;2022-11-14T07:16:05;50.33;;;29.90;;
6031;SDS011;3044;43.232;27.972;2022-11-14T07:18:33;48.07;;;29.67;;
6031;SDS011;3044;43.232;27.972;2022-11-14T07:21:01;48.23;;;30.07;;
6031;SDS011;3044;43.232;27.972;2022-11-14T07:23:29;47.40;;;26.97;;
6031;SDS011;3044;43.232;27.972;2022-11-14T07:25:59;49.70;;;28.77;;
6031;SDS011;3044;43.232;27.972;2022-11-14T07:28:26;54.63;;;29.47;;
6031;SDS011;3044;43.232;27.972;2022-11-14T07:30:55;48.60;;;28.47;;
6031;SDS011;3044;43.232;27.972;2022-11-14T07:33:22;47.13;;;25.70;;
6031;SDS011;3044;43.232;27.972;2022-11-14T07:35:49;45.80;;;26.03;;
6031;SDS011;3044;43.232;27.972;2022-11-14T07:38:17;40.93;;;25.90;;
6031;SDS011;3044;43.232;27.972;2022-11-14T07:40:51;44.40;;;26.40;;
6031;SDS011;3044;43.232;27.972;2022-11-14T07:43:19;40.57;;;27.10;;
6031;SDS011;3044;43.232;27.972;2022-11-14T07:45:46;37.23;;;24.33;;
6031;SDS011;3044;43.232;27.972;2022-11-14T07:48:15;48.67;;;28.00;;
6031;SDS011;3044;43.232;27.972;2022-11-14T07:50:43;43.70;;;25.97;;
6031;SDS011;3044;43.232;27.972;2022-11-14T07:53:11;42.30;;;26.30;;
6031;SDS011;3044;43.232;27.972;2022-11-14T07:55:39;46.03;;;27.47;;
6031;SDS011;3044;43.232;27.972;2022-11-14T07:58:07;49.00;;;27.20;;
6031;SDS011;3044;43.232;27.972;2022-11-14T08:00:34;38.60;;;25.17;;
6031;SDS011;3044;43.232;27.972;2022-11-14T08:03:01;43.83;;;26.90;;
6031;SDS011;3044;43.232;27.972;2022-11-14T08:05:29;39.37;;;25.93;;
6031;SDS011;3044;43.232;27.972;2022-11-14T08:07:57;47.87;;;25.70;;
6031;SDS011;3044;43.232;27.972;2022-11-14T08:10:24;42.70;;;25.53;;
6031;SDS011;3044;43.232;27.972;2022-11-14T08:12:56;38.03;;;24.50;;
6031;SDS011;3044;43.232;27.972;2022-11-14T08:15:24;38.20;;;25.50;;
6031;SDS011;3044;43.232;27.972;2022-11-14T08:17:52;41.10;;;26.40;;
6031;SDS011;3044;43.232;27.972;2022-11-14T08:20:22;47.40;;;26.50;;
6031;SDS011;3044;43.232;27.972;2022-11-14T08:22:52;51.53;;;27.90;;
6031;SDS011;3044;43.232;27.972;2022-11-14T08:25:19;41.60;;;27.10;;
6031;SDS011;3044;43.232;27.972;2022-11-14T08:27:46;43.53;;;26.90;;
6031;SDS011;3044;43.232;27.972;2022-11-14T08:30:13;44.13;;;27.03;;
6031;SDS011;3044;43.232;27.972;2022-11-14T08:32:41;45.13;;;28.53;;
6031;SDS011;3044;43.232;27.972;2022-11-14T08:35:08;47.73;;;26.33;;
6031;SDS011;3044;43.232;27.972;2022-11-14T08:37:35;46.50;;;26.47;;
6031;SDS011;3044;43.232;27.972;2022-11-14T08:40:04;43.53;;;27.20;;
6031;SDS011;3044;43.232;27.972;2022-11-14T08:42:31;44.27;;;26.70;;
6031;SDS011;3044;43.232;27.972;2022-11-14T08:44:59;45.50;;;26.13;;
6031;SDS011;3044;43.232;27.972;2022-11-14T08:47:26;52.80;;;29.80;;
6031;SDS011;3044;43.232;27.972;2022-11-14T08:49:53;42.13;;;25.97;;
6031;SDS011;3044;43.232;27.972;2022-11-14T08:52:20;45.13;;;26.63;;
6031;SDS011;3044;43.232;27.972;2022-11-14T08:54:47;46.87;;;27.97;;
6031;SDS011;3044;43.232;27.972;2022-11-14T08:57:16;43.63;;;25.97;;
6031;SDS011;3044;43.232;27.972;2022-11-14T08:59:43;43.00;;;26.60;;
6031;SDS011;3044;43.232;27.972;2022-11-14T09:02:11;45.97;;;26.63;;
6031;SDS011;3044;43.232;27.972;2022-11-14T09:04:38;48.13;;;26.40;;
6031;SDS011;3044;43.232;27.972;2022-11-14T09:07:05;43.73;;;27.20;;
6031;SDS011;3044;43.232;27.972;2022-11-14T09:09:33;53.30;;;27.40;;
6031;SDS011;3044;43.232;27.972;2022-11-14T09:12:00;47.90;;;27.57;;
6031;SDS011;3044;43.232;27.972;2022-11-14T09:14:29;47.17;;;27.43;;
6031;SDS011;3044;43.232;27.972;2022-11-14T09:16:56;46.60;;;25.93;;
6031;SDS011;3044;43.232;27.972;2022-11-14T09:19:23;46.47;;;25.70;;
6031;SDS011;3044;43.232;27.972;2022-11-14T09:21:50;54.40;;;27.47;;
6031;SDS011;3044;43.232;27.972;2022-11-14T09:24:18;44.40;;;25.77;;
6031;SDS011;3044;43.232;27.972;2022-11-14T09:26:45;51.03;;;25.70;;
6031;SDS011;3044;43.232;27.972;2022-11-14T09:29:13;38.10;;;24.83;;
6031;SDS011;3044;43.232;27.972;2022-11-14T09:31:44;39.97;;;22.53;;
6031;SDS011;3044;43.232;27.972;2022-11-14T09:34:11;47.17;;;26.60;;
6031;SDS011;3044;43.232;27.972;2022-11-14T09:36:39;50.93;;;26.33;;
6031;SDS011;3044;43.232;27.972;2022-11-14T09:39:06;46.87;;;27.37;;
6031;SDS011;3044;43.232;27.972;2022-11-14T09:41:37;38.77;;;23.73;;
6031;SDS011;3044;43.232;27.972;2022-11-14T09:44:19;38.70;;;25.50;;
6031;SDS011;3044;43.232;27.972;2022-11-14T09:47:00;47.03;;;26.27;;
6031;SDS011;3044;43.232;27.972;2022-11-14T09:49:31;40.50;;;23.53;;
6031;SDS011;3044;43.232;27.972;2022-11-14T09:52:07;41.67;;;24.00;;
6031;SDS011;3044;43.232;27.972;2022-11-14T09:54:41;47.10;;;25.60;;
6031;SDS011;3044;43.232;27.972;2022-11-14T09:57:14;41.97;;;25.77;;
6031;SDS011;3044;43.232;27.972;2022-11-14T09:59:43;45.47;;;26.23;;
6031;SDS011;3044;43.232;27.972;2022-11-14T10:02:18;48.53;;;26.07;;
6031;SDS011;3044;43.232;27.972;2022-11-14T10:05:00;50.07;;;25.60;;
6031;SDS011;3044;43.232;27.972;2022-11-14T10:07:42;41.50;;;24.70;;
6031;SDS011;3044;43.232;27.972;2022-11-14T10:10:25;48.07;;;26.37;;
6031;SDS011;3044;43.232;27.972;2022-11-14T10:13:04;45.63;;;25.83;;
6031;SDS011;3044;43.232;27.972;2022-11-14T10:15:42;55.03;;;26.93;;
6031;SDS011;3044;43.232;27.972;2022-11-14T10:18:22;55.53;;;27.67;;
6031;SDS011;3044;43.232;27.972;2022-11-14T10:21:13;46.97;;;26.77;;
6031;SDS011;3044;43.232;27.972;2022-11-14T10:23:57;48.37;;;25.17;;
6031;SDS011;3044;43.232;27.972;2022-11-14T10:26:31;59.33;;;28.67;;
6031;SDS011;3044;43.232;27.972;2022-11-14T10:29:10;59.57;;;27.77;;
6031;SDS011;3044;43.232;27.972;2022-11-14T10:31:59;51.07;;;26.13;;
6031;SDS011;3044;43.232;27.972;2022-11-14T10:34:40;46.40;;;26.40;;
6031;SDS011;3044;43.232;27.972;2022-11-14T10:37:14;43.67;;;24.37;;
6031;SDS011;3044;43.232;27.972;2022-11-14T10:39:48;49.20;;;24.83;;
6031;SDS011;3044;43.232;27.972;2022-11-14T10:42:18;44.53;;;25.07;;
6031;SDS011;3044;43.232;27.972;2022-11-14T10:44:52;45.97;;;24.90;;
6031;SDS011;3044;43.232;27.972;2022-11-14T10:47:22;38.00;;;22.13;;
6031;SDS011;3044;43.232;27.972;2022-11-14T10:50:11;40.13;;;23.67;;
6031;SDS011;3044;43.232;27.972;2022-11-14T10:52:43;40.80;;;23.80;;
6031;SDS011;3044;43.232;27.972;2022-11-14T10:55:12;42.30;;;25.07;;
6031;SDS011;3044;43.232;27.972;2022-11-14T10:57:41;40.27;;;22.30;;
6031;SDS011;3044;43.232;27.972;2022-11-14T11:00:10;43.03;;;23.10;;
6031;SDS011;3044;43.232;27.972;2022-11-14T11:02:46;46.43;;;25.50;;
6031;SDS011;3044;43.232;27.972;2022-11-14T11:05:17;40.43;;;24.53;;
6031;SDS011;3044;43.232;27.972;2022-11-14T11:07:46;45.43;;;25.43;;
6031;SDS011;3044;43.232;27.972;2022-11-14T11:10:32;44.90;;;24.17;;
6031;SDS011;3044;43.232;27.972;2022-11-14T11:13:32;48.73;;;25.23;;
6031;SDS011;3044;43.232;27.972;2022-11-14T11:16:01;54.60;;;27.23;;
6031;SDS011;3044;43.232;27.972;2022-11-14T11:18:31;49.67;;;25.70;;
6031;SDS011;3044;43.232;27.972;2022-11-14T11:21:02;43.63;;;25.40;;
6031;SDS011;3044;43.232;27.972;2022-11-14T11:23:34;46.87;;;25.30;;
6031;SDS011;3044;43.232;27.972;2022-11-14T11:26:03;50.50;;;24.53;;
6031;SDS011;3044;43.232;27.972;2022-11-14T11:28:33;40.67;;;23.00;;
6031;SDS011;3044;43.232;27.972;2022-11-14T11:31:02;46.03;;;26.30;;
6031;SDS011;3044;43.232;27.972;2022-11-14T11:33:30;49.90;;;26.27;;
6031;SDS011;3044;43.232;27.972;2022-11-14T11:36:00;46.70;;;27.00;;
6031;SDS011;3044;43.232;27.972;2022-11-14T11:38:31;42.67;;;26.60;;
6031;SDS011;3044;43.232;27.972;2022-11-14T11:41:02;58.73;;;28.27;;
6031;SDS011;3044;43.232;27.972;2022-11-14T11:43:37;55.70;;;27.00;;
6031;SDS011;3044;43.232;27.972;2022-11-14T11:46:12;51.83;;;30.13;;
6031;SDS011;3044;43.232;27.972;2022-11-14T11:48:43;54.90;;;29.20;;
6031;SDS011;3044;43.232;27.972;2022-11-14T11:51:18;52.93;;;25.87;;
6031;SDS011;3044;43.232;27.972;2022-11-14T11:53:54;51.70;;;27.20;;
6031;SDS011;3044;43.232;27.972;2022-11-14T11:56:28;47.23;;;26.53;;
6031;SDS011;3044;43.232;27.972;2022-11-14T11:58:59;51.13;;;26.00;;
6031;SDS011;3044;43.232;27.972;2022-11-14T12:01:38;52.03;;;27.00;;
6031;SDS011;3044;43.232;27.972;2022-11-14T12:04:05;61.33;;;27.10;;
6031;SDS011;3044;43.232;27.972;2022-11-14T12:06:37;50.90;;;25.60;;
6031;SDS011;3044;43.232;27.972;2022-11-14T12:09:13;46.90;;;25.10;;
6031;SDS011;3044;43.232;27.972;2022-11-14T12:11:45;47.00;;;25.73;;
6031;SDS011;3044;43.232;27.972;2022-11-14T12:14:29;49.97;;;26.13;;
6031;SDS011;3044;43.232;27.972;2022-11-14T12:20:15;47.43;;;25.40;;
6031;SDS011;3044;43.232;27.972;2022-11-14T12:23:29;49.57;;;27.23;;
6031;SDS011;3044;43.232;27.972;2022-11-14T12:26:21;50.77;;;27.47;;
6031;SDS011;3044;43.232;27.972;2022-11-14T12:29:13;59.40;;;26.60;;
6031;SDS011;3044;43.232;27.972;2022-11-14T12:31:51;47.73;;;23.77;;
6031;SDS011;3044;43.232;27.972;2022-11-14T12:34:25;44.90;;;25.03;;
6031;SDS011;3044;43.232;27.972;2022-11-14T12:36:56;43.77;;;23.53;;
6031;SDS011;3044;43.232;27.972;2022-11-14T12:39:25;44.60;;;20.93;;
6031;SDS011;3044;43.232;27.972;2022-11-14T12:42:01;33.97;;;19.03;;
6031;SDS011;3044;43.232;27.972;2022-11-14T12:44:32;37.00;;;21.50;;
6031;SDS011;3044;43.232;27.972;2022-11-14T12:47:10;37.77;;;21.40;;
6031;SDS011;3044;43.232;27.972;2022-11-14T12:52:41;39.80;;;22.30;;
6031;SDS011;3044;43.232;27.972;2022-11-14T12:58:19;39.60;;;22.80;;
6031;SDS011;3044;43.232;27.972;2022-11-14T13:01:01;54.37;;;25.70;;
6031;SDS011;3044;43.232;27.972;2022-11-14T13:03:46;49.80;;;23.67;;
6031;SDS011;3044;43.232;27.972;2022-11-14T13:06:22;43.43;;;22.03;;
6031;SDS011;3044;43.232;27.972;2022-11-14T13:11:56;50.33;;;23.67;;
6031;SDS011;3044;43.232;27.972;2022-11-14T13:14:48;44.67;;;23.97;;
6031;SDS011;3044;43.232;27.972;2022-11-14T13:17:34;46.07;;;25.13;;
6031;SDS011;3044;43.232;27.972;2022-11-14T13:20:27;49.10;;;24.50;;
6031;SDS011;3044;43.232;27.972;2022-11-14T13:29:04;67.27;;;25.00;;
6031;SDS011;3044;43.232;27.972;2022-11-14T13:31:43;47.30;;;23.40;;
6031;SDS011;3044;43.232;27.972;2022-11-14T13:34:30;48.37;;;23.37;;
6031;SDS011;3044;43.232;27.972;2022-11-14T13:37:09;39.83;;;22.20;;
6031;SDS011;3044;43.232;27.972;2022-11-14T13:39:49;41.40;;;22.67;;
6031;SDS011;3044;43.232;27.972;2022-11-14T13:42:29;44.23;;;21.37;;
6031;SDS011;3044;43.232;27.972;2022-11-14T13:45:17;49.27;;;22.70;;
6031;SDS011;3044;43.232;27.972;2022-11-14T13:48:20;41.33;;;23.30;;
6031;SDS011;3044;43.232;27.972;2022-11-14T13:50:59;39.60;;;21.00;;
6031;SDS011;3044;43.232;27.972;2022-11-14T13:53:31;47.80;;;24.20;;
6031;SDS011;3044;43.232;27.972;2022-11-14T13:56:04;41.30;;;24.43;;
6031;SDS011;3044;43.232;27.972;2022-11-14T13:58:46;38.80;;;21.67;;
6031;SDS011;3044;43.232;27.972;2022-11-14T14:01:24;42.80;;;24.20;;
6031;SDS011;3044;43.232;27.972;2022-11-14T14:07:02;42.50;;;21.53;;
6031;SDS011;3044;43.232;27.972;2022-11-14T14:09:39;36.33;;;21.87;;
6031;SDS011;3044;43.232;27.972;2022-11-14T14:15:13;37.90;;;20.07;;
6031;SDS011;3044;43.232;27.972;2022-11-14T14:17:49;39.47;;;21.00;;
6031;SDS011;3044;43.232;27.972;2022-11-14T14:20:31;39.80;;;21.40;;
6031;SDS011;3044;43.232;27.972;2022-11-14T14:23:13;31.43;;;18.40;;
6031;SDS011;3044;43.232;27.972;2022-11-14T14:25:51;35.67;;;21.13;;
6031;SDS011;3044;43.232;27.972;2022-11-14T14:28:28;35.87;;;19.80;;
6031;SDS011;3044;43.232;27.972;2022-11-14T14:31:10;40.63;;;20.57;;
6031;SDS011;3044;43.232;27.972;2022-11-14T14:33:40;35.13;;;19.93;;
6031;SDS011;3044;43.232;27.972;2022-11-14T14:36:20;32.40;;;19.97;;
6031;SDS011;3044;43.232;27.972;2022-11-14T14:38:49;39.37;;;20.40;;
6031;SDS011;3044;43.232;27.972;2022-11-14T14:41:31;40.50;;;19.63;;
6031;SDS011;3044;43.232;27.972;2022-11-14T14:43:58;40.50;;;22.20;;
6031;SDS011;3044;43.232;27.972;2022-11-14T14:46:30;40.10;;;20.93;;
6031;SDS011;3044;43.232;27.972;2022-11-14T14:48:59;38.83;;;20.40;;
6031;SDS011;3044;43.232;27.972;2022-11-14T14:51:31;38.00;;;21.00;;
6031;SDS011;3044;43.232;27.972;2022-11-14T14:53:59;40.03;;;21.00;;
6031;SDS011;3044;43.232;27.972;2022-11-14T14:56:27;36.83;;;18.43;;
6031;SDS011;3044;43.232;27.972;2022-11-14T14:58:54;55.83;;;20.83;;
6031;SDS011;3044;43.232;27.972;2022-11-14T15:01:22;50.83;;;20.20;;
6031;SDS011;3044;43.232;27.972;2022-11-14T15:03:55;46.63;;;22.40;;
6031;SDS011;3044;43.232;27.972;2022-11-14T15:06:27;36.17;;;20.67;;
6031;SDS011;3044;43.232;27.972;2022-11-14T15:08:59;34.10;;;19.67;;
6031;SDS011;3044;43.232;27.972;2022-11-14T15:11:28;40.93;;;21.17;;
6031;SDS011;3044;43.232;27.972;2022-11-14T15:13:56;34.07;;;20.63;;
6031;SDS011;3044;43.232;27.972;2022-11-14T15:16:24;38.27;;;21.47;;